createdAt,value
2023-08-29T00:00:39.401Z,19.95
2023-08-29T00:06:05.897Z,19.92
2023-08-29T00:11:11.709Z,19.79
2023-08-29T00:16:18.073Z,19.61
2023-08-29T00:21:23.783Z,19.46
2023-08-29T00:26:29.476Z,19.38
2023-08-29T00:31:35.450Z,19.34
2023-08-29T00:36:40.986Z,19.36
2023-08-29T00:41:50.377Z,19.43
2023-08-29T00:46:56.254Z,19.48
2023-08-29T00:52:03.652Z,19.50
2023-08-29T00:57:09.762Z,19.52
2023-08-29T01:02:15.573Z,19.56
2023-08-29T01:07:21.104Z,19.57
2023-08-29T01:12:43.671Z,19.52
2023-08-29T01:17:56.049Z,19.49
2023-08-29T01:23:15.374Z,19.46
2023-08-29T01:28:23.078Z,19.49
2023-08-29T01:33:29.192Z,19.50
2023-08-29T01:38:34.796Z,19.50
2023-08-29T01:43:40.490Z,19.52
2023-08-29T01:48:46.486Z,19.52
2023-08-29T01:53:52.012Z,19.50
2023-08-29T01:59:00.156Z,19.49
2023-08-29T02:04:06.202Z,19.47
2023-08-29T02:09:12.300Z,19.45
2023-08-29T02:14:18.037Z,19.49
2023-08-29T02:19:23.773Z,19.49
2023-08-29T02:24:30.250Z,19.48
2023-08-29T02:29:36.533Z,19.50
2023-08-29T02:34:42.380Z,19.51
2023-08-29T02:39:47.910Z,19.50
2023-08-29T02:44:53.504Z,19.50
2023-08-29T02:50:00.025Z,19.52
2023-08-29T02:55:09.055Z,19.52
2023-08-29T03:00:16.777Z,19.48
2023-08-29T03:05:23.114Z,19.43
2023-08-29T03:10:28.934Z,19.38
2023-08-29T03:15:35.588Z,19.36
2023-08-29T03:20:43.279Z,19.32
2023-08-29T03:25:49.417Z,19.30
2023-08-29T03:30:55.321Z,19.27
2023-08-29T03:36:01.361Z,19.25
2023-08-29T03:41:07.324Z,19.23
2023-08-29T03:46:12.990Z,19.23
2023-08-29T03:51:18.638Z,19.30
2023-08-29T03:56:24.351Z,19.40
2023-08-29T04:01:30.601Z,19.50
2023-08-29T04:06:36.416Z,19.62
2023-08-29T04:11:41.985Z,19.68
2023-08-29T04:16:48.974Z,19.77
2023-08-29T04:21:54.670Z,19.89
2023-08-29T04:27:00.526Z,20.02
2023-08-29T04:32:07.115Z,20.14
2023-08-29T04:37:12.770Z,20.20
2023-08-29T04:42:18.570Z,20.26
2023-08-29T04:47:24.355Z,20.38
2023-08-29T04:52:30.373Z,20.39
2023-08-29T04:57:36.084Z,20.42
2023-08-29T05:02:41.697Z,20.46
2023-08-29T05:07:47.611Z,20.50
2023-08-29T05:12:53.289Z,20.56
2023-08-29T05:17:59.199Z,20.52
2023-08-29T05:23:05.289Z,20.52
2023-08-29T05:28:11.628Z,20.55
2023-08-29T05:33:17.712Z,20.55
2023-08-29T05:38:26.559Z,20.54
2023-08-29T05:43:32.254Z,20.55
2023-08-29T05:48:37.974Z,20.54
2023-08-29T05:53:43.726Z,20.56
2023-08-29T05:58:49.566Z,20.63
2023-08-29T06:03:55.560Z,20.68
2023-08-29T06:09:02.024Z,20.68
2023-08-29T06:14:08.734Z,20.75
2023-08-29T06:19:14.320Z,20.90
2023-08-29T06:24:20.480Z,21.04
2023-08-29T06:29:26.251Z,21.20
2023-08-29T06:34:31.914Z,21.43
2023-08-29T06:39:38.527Z,21.70
2023-08-29T06:44:43.972Z,21.90
2023-08-29T06:49:49.579Z,22.08
2023-08-29T06:54:55.431Z,22.27
2023-08-29T07:00:00.882Z,22.54
2023-08-29T07:05:09.740Z,22.89
2023-08-29T07:10:16.154Z,23.08
2023-08-29T07:15:22.259Z,23.16
2023-08-29T07:20:28.088Z,23.66
2023-08-29T07:25:44.871Z,24.19
2023-08-29T07:30:52.671Z,24.98
2023-08-29T07:36:02.307Z,25.35
2023-08-29T07:41:08.486Z,25.67
2023-08-29T07:46:14.479Z,26.77
2023-08-29T07:51:20.134Z,27.15
2023-08-29T07:56:25.946Z,26.51
2023-08-29T08:01:31.954Z,25.94
2023-08-29T08:06:37.710Z,25.44
2023-08-29T08:11:43.528Z,25.07
2023-08-29T08:16:49.243Z,24.84
2023-08-29T08:21:55.199Z,24.71
2023-08-29T08:27:00.712Z,24.53
2023-08-29T08:32:06.754Z,24.38
2023-08-29T08:37:12.831Z,24.44
2023-08-29T08:42:19.633Z,24.56
2023-08-29T08:47:26.629Z,24.76
2023-08-29T08:52:34.609Z,24.86
2023-08-29T08:57:40.709Z,24.86
2023-08-29T09:02:48.169Z,24.75
2023-08-29T09:07:54.236Z,24.67
2023-08-29T09:12:59.999Z,24.67
2023-08-29T09:18:07.428Z,24.64
2023-08-29T09:23:24.169Z,24.66
2023-08-29T09:28:30.373Z,24.77
2023-08-29T09:33:37.386Z,24.91
2023-08-29T09:38:43.433Z,25.08
2023-08-29T09:43:50.716Z,25.45
2023-08-29T09:48:59.273Z,25.90
2023-08-29T09:54:12.151Z,26.24
2023-08-29T09:59:22.028Z,26.60
2023-08-29T10:04:30.373Z,26.83
2023-08-29T10:09:37.168Z,26.88
2023-08-29T10:14:45.159Z,27.18
2023-08-29T10:19:52.356Z,27.40
2023-08-29T10:25:00.439Z,27.34
2023-08-29T10:30:08.036Z,27.42
2023-08-29T10:35:24.637Z,27.87
2023-08-29T10:40:36.954Z,27.99
2023-08-29T10:45:49.767Z,28.08
2023-08-29T10:51:12.508Z,28.34
2023-08-29T10:56:19.495Z,28.40
2023-08-29T11:01:32.359Z,28.35
2023-08-29T11:06:55.213Z,28.09
2023-08-29T11:12:14.303Z,27.77
2023-08-29T11:17:27.108Z,27.70
2023-08-29T11:22:33.305Z,27.82
2023-08-29T11:27:40.394Z,27.78
2023-08-29T11:32:53.111Z,27.75
2023-08-29T11:38:00.473Z,27.72
2023-08-29T11:43:23.771Z,27.71
2023-08-29T11:48:35.155Z,27.63
2023-08-29T11:53:40.888Z,27.59
2023-08-29T11:58:47.043Z,27.92
2023-08-29T12:03:54.048Z,28.18
2023-08-29T12:09:01.310Z,28.24
2023-08-29T12:14:08.694Z,28.18
2023-08-29T12:19:17.956Z,28.12
2023-08-29T12:24:24.072Z,28.21
2023-08-29T12:29:30.002Z,28.35
2023-08-29T12:34:35.765Z,28.62
2023-08-29T12:39:41.694Z,28.80
2023-08-29T12:44:47.490Z,28.81
2023-08-29T12:49:53.741Z,28.78
2023-08-29T12:54:59.319Z,28.49
2023-08-29T13:00:08.374Z,28.27
2023-08-29T13:05:14.268Z,27.98
2023-08-29T13:10:20.130Z,27.71
2023-08-29T13:15:33.775Z,27.49
2023-08-29T13:20:45.361Z,27.36
2023-08-29T13:25:51.048Z,27.30
2023-08-29T13:30:59.896Z,27.33
2023-08-29T13:36:07.386Z,27.35
2023-08-29T13:41:13.416Z,27.64
2023-08-29T13:46:19.284Z,28.20
2023-08-29T13:51:26.531Z,28.70
2023-08-29T13:56:33.333Z,28.92
2023-08-29T14:01:42.937Z,29.07
2023-08-29T14:06:49.699Z,29.16
2023-08-29T14:11:55.623Z,29.07
2023-08-29T14:17:01.270Z,28.89
2023-08-29T14:22:07.173Z,28.74
2023-08-29T14:27:13.175Z,28.58
2023-08-29T14:32:18.824Z,28.48
2023-08-29T14:37:24.628Z,28.20
2023-08-29T14:42:30.406Z,27.82
2023-08-29T14:47:37.793Z,27.51
2023-08-29T14:52:43.528Z,27.10
2023-08-29T14:57:49.709Z,26.76
2023-08-29T15:02:55.905Z,26.55
2023-08-29T15:08:02.651Z,26.47
2023-08-29T15:13:09.399Z,26.29
2023-08-29T15:18:15.439Z,26.19
2023-08-29T15:23:21.070Z,26.04
2023-08-29T15:28:30.027Z,25.92
2023-08-29T15:33:36.822Z,25.81
2023-08-29T15:38:43.851Z,25.91
2023-08-29T15:43:49.711Z,25.86
2023-08-29T15:48:55.275Z,25.67
2023-08-29T15:54:00.817Z,25.46
2023-08-29T15:59:07.390Z,25.32
2023-08-29T16:04:13.106Z,25.18
2023-08-29T16:09:31.155Z,25.02
2023-08-29T16:14:37.354Z,24.89
2023-08-29T16:19:45.414Z,24.62
2023-08-29T16:24:57.178Z,24.39
2023-08-29T16:30:02.988Z,24.21
2023-08-29T16:35:09.705Z,24.10
2023-08-29T16:40:15.623Z,23.98
2023-08-29T16:45:21.308Z,23.86
2023-08-29T16:50:27.374Z,23.77
2023-08-29T16:55:37.658Z,23.70
2023-08-29T17:00:43.513Z,23.60
2023-08-29T17:05:49.270Z,23.47
2023-08-29T17:10:55.443Z,23.33
2023-08-29T17:16:01.790Z,23.20
2023-08-29T17:21:07.521Z,23.11
2023-08-29T17:26:13.148Z,23.03
2023-08-29T17:31:18.801Z,22.87
2023-08-29T17:36:27.491Z,22.73
2023-08-29T17:41:35.812Z,22.58
2023-08-29T17:46:44.676Z,22.43
2023-08-29T17:51:50.306Z,22.31
2023-08-29T17:56:57.789Z,22.20
2023-08-29T18:02:03.948Z,22.09
2023-08-29T18:07:09.764Z,22.00
2023-08-29T18:12:15.522Z,21.96
2023-08-29T18:17:21.454Z,21.83
2023-08-29T18:22:27.834Z,21.75
2023-08-29T18:27:33.661Z,21.71
2023-08-29T18:32:39.419Z,21.74
2023-08-29T18:37:45.488Z,21.77
2023-08-29T18:42:51.920Z,21.69
2023-08-29T18:47:58.107Z,21.57
2023-08-29T18:53:05.014Z,21.45
2023-08-29T18:58:11.879Z,21.35
2023-08-29T19:03:20.112Z,21.34
2023-08-29T19:08:26.353Z,21.31
2023-08-29T19:13:34.460Z,21.21
2023-08-29T19:18:40.759Z,21.11
2023-08-29T19:23:47.835Z,21.09
2023-08-29T19:29:01.110Z,21.03
2023-08-29T19:34:09.490Z,20.91
2023-08-29T19:39:18.889Z,20.77
2023-08-29T19:44:37.271Z,20.67
2023-08-29T19:49:48.583Z,20.56
2023-08-29T19:54:55.039Z,20.58
2023-08-29T20:00:06.403Z,20.59
2023-08-29T20:05:19.216Z,20.58
2023-08-29T20:10:25.342Z,20.45
2023-08-29T20:15:31.391Z,20.40
2023-08-29T20:20:41.659Z,20.44
2023-08-29T20:25:47.529Z,20.43
2023-08-29T20:30:58.509Z,20.49
2023-08-29T20:36:06.652Z,20.54
2023-08-29T20:41:12.503Z,20.47
2023-08-29T20:46:18.461Z,20.42
2023-08-29T20:51:24.548Z,20.42
2023-08-29T20:56:36.762Z,20.45
2023-08-29T21:01:46.174Z,20.44
2023-08-29T21:06:51.778Z,20.42
2023-08-29T21:11:57.573Z,20.42
2023-08-29T21:17:03.917Z,20.43
2023-08-29T21:22:09.523Z,20.42
2023-08-29T21:27:20.684Z,20.42
2023-08-29T21:32:26.195Z,20.41
2023-08-29T21:37:45.932Z,20.41
2023-08-29T21:42:51.666Z,20.42
2023-08-29T21:47:57.859Z,20.42
2023-08-29T21:53:04.364Z,20.40
2023-08-29T21:58:17.693Z,20.39
2023-08-29T22:03:24.796Z,20.36
2023-08-29T22:08:30.527Z,20.30
2023-08-29T22:13:36.134Z,20.25
2023-08-29T22:18:41.772Z,20.28
2023-08-29T22:23:47.773Z,20.26
2023-08-29T22:28:53.315Z,20.25
2023-08-29T22:33:59.103Z,20.23
2023-08-29T22:39:04.741Z,20.27
2023-08-29T22:44:10.697Z,20.28
2023-08-29T22:49:16.349Z,20.25
2023-08-29T22:54:22.076Z,20.23
2023-08-29T22:59:30.202Z,20.19
2023-08-29T23:04:36.073Z,20.21
2023-08-29T23:09:43.722Z,20.25
2023-08-29T23:14:49.263Z,20.22
2023-08-29T23:20:09.362Z,20.17
2023-08-29T23:25:17.242Z,20.16
2023-08-29T23:30:23.355Z,20.17
2023-08-29T23:35:29.038Z,20.19
2023-08-29T23:40:38.397Z,20.20
2023-08-29T23:45:44.461Z,20.16
2023-08-29T23:50:50.273Z,20.11
2023-08-29T23:55:56.038Z,20.07
